Terminal Aerodrome Forecast
Issued by NWS Tampa Bay Area, FL

Home | Current Version | Previous Version | Text Only | Print | Product List | Glossary On
Versions: 1 2 3 4 5 6 7 8 9 10 11 12 13 14 15 16 17 18 19 20 21 22 23 24 25 26 27
854
FTUS42 KTBW 221507 AAB
TAFTPA
TAF AMD
KTPA 221507Z 2215/2318 VRB04KT P6SM SCT020 SCT150
     FM221700 02005KT P6SM SCT035 SCT150
     FM222100 35005KT P6SM SCT040 BKN150
     FM230200 05006KT P6SM SCT040 BKN150
     FM230800 07006KT P6SM BKN015
     FM231400 09007KT P6SM SHRA SCT015 BKN035=

USA.gov is the U.S. government's official web portal to all federal, state and local government web resources and services.